sensor_id;sensor_type;location;lat;lon;timestamp;pressure;altitude;pressure_sealevel;temperature;humidity
26083;BME280;13848;49.018;12.078;2023-07-09T00:00:45;98014.03;;;20.35;53.10
26083;BME280;13848;49.018;12.078;2023-07-09T00:03:11;98020.34;;;20.36;53.28
26083;BME280;13848;49.018;12.078;2023-07-09T00:05:37;98020.06;;;20.32;53.50
26083;BME280;13848;49.018;12.078;2023-07-09T00:08:05;98014.03;;;20.25;53.64
26083;BME280;13848;49.018;12.078;2023-07-09T00:10:31;98022.78;;;20.27;53.98
26083;BME280;13848;49.018;12.078;2023-07-09T00:12:57;98025.00;;;20.25;53.89
26083;BME280;13848;49.018;12.078;2023-07-09T00:15:25;98033.75;;;20.22;54.09
26083;BME280;13848;49.018;12.078;2023-07-09T00:17:52;98038.69;;;20.20;54.02
26083;BME280;13848;49.018;12.078;2023-07-09T00:20:18;98037.88;;;20.09;54.27
26083;BME280;13848;49.018;12.078;2023-07-09T00:22:44;98032.97;;;20.06;54.35
26083;BME280;13848;49.018;12.078;2023-07-09T00:25:12;98026.63;;;20.06;54.32
26083;BME280;13848;49.018;12.078;2023-07-09T00:27:38;98030.75;;;19.98;54.22
26083;BME280;13848;49.018;12.078;2023-07-09T00:30:05;98037.34;;;20.02;54.54
26083;BME280;13848;49.018;12.078;2023-07-09T00:32:31;98035.97;;;19.95;54.43
26083;BME280;13848;49.018;12.078;2023-07-09T00:34:57;98039.25;;;19.86;54.60
26083;BME280;13848;49.018;12.078;2023-07-09T00:37:24;98040.63;;;19.79;54.93
26083;BME280;13848;49.018;12.078;2023-07-09T00:39:51;98042.25;;;19.75;55.16
26083;BME280;13848;49.018;12.078;2023-07-09T00:42:21;98035.41;;;19.77;54.98
26083;BME280;13848;49.018;12.078;2023-07-09T00:44:50;98035.94;;;19.74;55.13
26083;BME280;13848;49.018;12.078;2023-07-09T00:47:26;98037.59;;;19.80;55.00
26083;BME280;13848;49.018;12.078;2023-07-09T00:50:01;98038.13;;;19.82;54.72
26083;BME280;13848;49.018;12.078;2023-07-09T00:52:33;98039.81;;;19.83;54.75
26083;BME280;13848;49.018;12.078;2023-07-09T00:55:05;98040.88;;;19.82;54.55
26083;BME280;13848;49.018;12.078;2023-07-09T00:57:34;98040.91;;;19.77;54.73
26083;BME280;13848;49.018;12.078;2023-07-09T01:00:05;98046.38;;;19.77;55.07
26083;BME280;13848;49.018;12.078;2023-07-09T01:02:32;98044.69;;;19.76;55.00
26083;BME280;13848;49.018;12.078;2023-07-09T01:04:59;98049.09;;;19.77;55.19
26083;BME280;13848;49.018;12.078;2023-07-09T01:07:27;98057.84;;;19.74;55.42
26083;BME280;13848;49.018;12.078;2023-07-09T01:09:53;98052.91;;;19.71;55.32
26083;BME280;13848;49.018;12.078;2023-07-09T01:12:20;98050.72;;;19.73;54.79
26083;BME280;13848;49.018;12.078;2023-07-09T01:14:48;98050.16;;;19.61;55.37
26083;BME280;13848;49.018;12.078;2023-07-09T01:17:15;98049.28;;;19.45;55.93
26083;BME280;13848;49.018;12.078;2023-07-09T01:19:42;98047.91;;;19.48;55.97
26083;BME280;13848;49.018;12.078;2023-07-09T01:22:11;98050.09;;;19.40;56.86
26083;BME280;13848;49.018;12.078;2023-07-09T01:25:02;98055.56;;;19.40;56.50
26083;BME280;13848;49.018;12.078;2023-07-09T01:27:31;98047.34;;;19.35;56.74
26083;BME280;13848;49.018;12.078;2023-07-09T01:29:59;98061.25;;;19.29;56.96
26083;BME280;13848;49.018;12.078;2023-07-09T01:32:26;98059.63;;;19.28;57.05
26083;BME280;13848;49.018;12.078;2023-07-09T01:34:54;98056.56;;;19.19;57.75
26083;BME280;13848;49.018;12.078;2023-07-09T01:37:25;98062.34;;;19.23;57.41
26083;BME280;13848;49.018;12.078;2023-07-09T01:39:53;98063.19;;;19.28;56.95
26083;BME280;13848;49.018;12.078;2023-07-09T01:42:23;98062.88;;;19.25;57.77
26083;BME280;13848;49.018;12.078;2023-07-09T01:44:59;98060.16;;;19.25;57.36
26083;BME280;13848;49.018;12.078;2023-07-09T01:47:37;98056.59;;;19.24;57.73
26083;BME280;13848;49.018;12.078;2023-07-09T01:50:04;98056.56;;;19.19;58.23
26083;BME280;13848;49.018;12.078;2023-07-09T01:52:35;98063.13;;;19.13;58.29
26083;BME280;13848;49.018;12.078;2023-07-09T01:55:09;98057.38;;;19.09;58.49
26083;BME280;13848;49.018;12.078;2023-07-09T01:57:43;98060.91;;;19.05;58.59
26083;BME280;13848;49.018;12.078;2023-07-09T02:00:18;98060.59;;;19.01;58.58
26083;BME280;13848;49.018;12.078;2023-07-09T02:02:50;98067.44;;;18.99;59.25
26083;BME280;13848;49.018;12.078;2023-07-09T02:05:19;98059.78;;;19.01;58.93
26083;BME280;13848;49.018;12.078;2023-07-09T02:07:53;98063.63;;;19.00;59.01
26083;BME280;13848;49.018;12.078;2023-07-09T02:10:19;98067.72;;;18.97;59.28
26083;BME280;13848;49.018;12.078;2023-07-09T02:12:57;98075.63;;;18.99;59.05
26083;BME280;13848;49.018;12.078;2023-07-09T02:15:28;98066.31;;;18.95;59.14
26083;BME280;13848;49.018;12.078;2023-07-09T02:17:54;98069.84;;;18.85;59.82
26083;BME280;13848;49.018;12.078;2023-07-09T02:20:22;98071.16;;;18.77;59.69
26083;BME280;13848;49.018;12.078;2023-07-09T02:22:53;98073.34;;;18.75;59.39
26083;BME280;13848;49.018;12.078;2023-07-09T02:25:21;98068.97;;;18.74;59.67
26083;BME280;13848;49.018;12.078;2023-07-09T02:27:52;98073.03;;;18.72;60.05
26083;BME280;13848;49.018;12.078;2023-07-09T02:30:24;98071.69;;;18.74;59.65
26083;BME280;13848;49.018;12.078;2023-07-09T02:32:56;98072.75;;;18.68;59.99
26083;BME280;13848;49.018;12.078;2023-07-09T02:35:27;98070.50;;;18.65;60.36
26083;BME280;13848;49.018;12.078;2023-07-09T02:37:59;98076.53;;;18.62;60.41
26083;BME280;13848;49.018;12.078;2023-07-09T02:40:25;98082.03;;;18.67;60.12
26083;BME280;13848;49.018;12.078;2023-07-09T02:42:56;98083.03;;;18.61;60.38
26083;BME280;13848;49.018;12.078;2023-07-09T02:45:25;98093.69;;;18.57;60.57
26083;BME280;13848;49.018;12.078;2023-07-09T02:47:55;98093.41;;;18.59;60.52
26083;BME280;13848;49.018;12.078;2023-07-09T02:50:28;98088.25;;;18.63;60.28
26083;BME280;13848;49.018;12.078;2023-07-09T02:52:56;98092.31;;;18.60;60.33
26083;BME280;13848;49.018;12.078;2023-07-09T02:55:34;98099.16;;;18.57;60.44
26083;BME280;13848;49.018;12.078;2023-07-09T02:58:03;98101.06;;;18.57;60.40
26083;BME280;13848;49.018;12.078;2023-07-09T03:00:31;98092.56;;;18.53;60.55
26083;BME280;13848;49.018;12.078;2023-07-09T03:03:00;98101.03;;;18.52;60.44
26083;BME280;13848;49.018;12.078;2023-07-09T03:05:30;98098.81;;;18.49;60.48
26083;BME280;13848;49.018;12.078;2023-07-09T03:07:56;98101.25;;;18.45;60.44
26083;BME280;13848;49.018;12.078;2023-07-09T03:10:30;98104.22;;;18.39;60.73
26083;BME280;13848;49.018;12.078;2023-07-09T03:13:12;98111.31;;;18.40;60.44
26083;BME280;13848;49.018;12.078;2023-07-09T03:15:53;98110.22;;;18.41;60.73
26083;BME280;13848;49.018;12.078;2023-07-09T03:18:26;98112.41;;;18.39;60.81
26083;BME280;13848;49.018;12.078;2023-07-09T03:20:54;98111.28;;;18.34;61.36
26083;BME280;13848;49.018;12.078;2023-07-09T03:23:36;98106.91;;;18.33;61.27
26083;BME280;13848;49.018;12.078;2023-07-09T03:26:11;98107.47;;;18.35;61.26
26083;BME280;13848;49.018;12.078;2023-07-09T03:28:45;98115.09;;;18.33;61.23
26083;BME280;13848;49.018;12.078;2023-07-09T03:31:21;98120.25;;;18.30;61.35
26083;BME280;13848;49.018;12.078;2023-07-09T03:33:58;98112.88;;;18.30;61.23
26083;BME280;13848;49.018;12.078;2023-07-09T03:36:35;98118.59;;;18.29;61.23
26083;BME280;13848;49.018;12.078;2023-07-09T03:39:09;98109.59;;;18.28;61.44
26083;BME280;13848;49.018;12.078;2023-07-09T03:41:38;98118.88;;;18.27;61.39
26083;BME280;13848;49.018;12.078;2023-07-09T03:44:06;98123.75;;;18.25;61.49
26083;BME280;13848;49.018;12.078;2023-07-09T03:46:37;98128.09;;;18.21;61.41
26083;BME280;13848;49.018;12.078;2023-07-09T03:49:16;98129.22;;;18.25;61.57
26083;BME280;13848;49.018;12.078;2023-07-09T03:51:54;98125.38;;;18.21;61.34
26083;BME280;13848;49.018;12.078;2023-07-09T03:54:41;98128.66;;;18.23;61.07
26083;BME280;13848;49.018;12.078;2023-07-09T03:57:08;98129.16;;;18.15;61.22
26083;BME280;13848;49.018;12.078;2023-07-09T03:59:39;98129.75;;;18.22;61.14
26083;BME280;13848;49.018;12.078;2023-07-09T04:02:05;98133.34;;;18.28;60.67
26083;BME280;13848;49.018;12.078;2023-07-09T04:04:53;98145.09;;;18.28;60.61
26083;BME280;13848;49.018;12.078;2023-07-09T04:07:25;98141.81;;;18.31;60.78
26083;BME280;13848;49.018;12.078;2023-07-09T04:10:03;98144.03;;;18.34;60.77
26083;BME280;13848;49.018;12.078;2023-07-09T04:12:45;98141.25;;;18.29;60.79
26083;BME280;13848;49.018;12.078;2023-07-09T04:15:18;98139.34;;;18.30;61.05
26083;BME280;13848;49.018;12.078;2023-07-09T04:17:53;98135.28;;;18.32;60.92
26083;BME280;13848;49.018;12.078;2023-07-09T04:20:41;98140.22;;;18.35;60.81
26083;BME280;13848;49.018;12.078;2023-07-09T04:23:12;98142.41;;;18.33;60.92
26083;BME280;13848;49.018;12.078;2023-07-09T04:25:47;98135.31;;;18.38;60.60
26083;BME280;13848;49.018;12.078;2023-07-09T04:28:26;98135.88;;;18.40;60.60
26083;BME280;13848;49.018;12.078;2023-07-09T04:30:57;98141.34;;;18.40;60.46
26083;BME280;13848;49.018;12.078;2023-07-09T04:33:31;98144.91;;;18.40;60.48
26083;BME280;13848;49.018;12.078;2023-07-09T04:36:04;98136.47;;;18.47;60.31
26083;BME280;13848;49.018;12.078;2023-07-09T04:38:39;98140.59;;;18.49;60.27
26083;BME280;13848;49.018;12.078;2023-07-09T04:41:10;98139.81;;;18.54;59.98
26083;BME280;13848;49.018;12.078;2023-07-09T04:43:49;98149.72;;;18.65;59.89
26083;BME280;13848;49.018;12.078;2023-07-09T04:46:19;98148.91;;;18.65;59.91
26083;BME280;13848;49.018;12.078;2023-07-09T04:49:04;98145.69;;;18.73;59.66
26083;BME280;13848;49.018;12.078;2023-07-09T04:51:43;98147.66;;;18.77;59.44
26083;BME280;13848;49.018;12.078;2023-07-09T04:54:15;98142.25;;;18.87;59.22
26083;BME280;13848;49.018;12.078;2023-07-09T04:57:03;98148.81;;;18.86;59.37
26083;BME280;13848;49.018;12.078;2023-07-09T04:59:39;98148.25;;;18.84;59.10
26083;BME280;13848;49.018;12.078;2023-07-09T05:02:14;98157.28;;;18.90;59.24
26083;BME280;13848;49.018;12.078;2023-07-09T05:05:10;98147.25;;;19.01;58.96
26083;BME280;13848;49.018;12.078;2023-07-09T05:07:39;98151.16;;;19.15;58.95
26083;BME280;13848;49.018;12.078;2023-07-09T05:10:17;98151.16;;;19.15;58.76
26083;BME280;13848;49.018;12.078;2023-07-09T05:12:56;98143.84;;;19.26;58.49
26083;BME280;13848;49.018;12.078;2023-07-09T05:15:43;98141.97;;;19.41;58.30
26083;BME280;13848;49.018;12.078;2023-07-09T05:18:29;98149.41;;;19.51;58.04
26083;BME280;13848;49.018;12.078;2023-07-09T05:20:55;98155.09;;;19.39;58.31
26083;BME280;13848;49.018;12.078;2023-07-09T05:23:34;98151.06;;;19.57;58.08
26083;BME280;13848;49.018;12.078;2023-07-09T05:26:08;98157.06;;;19.54;57.92
26083;BME280;13848;49.018;12.078;2023-07-09T05:28:56;98156.84;;;19.61;58.17
26083;BME280;13848;49.018;12.078;2023-07-09T05:31:44;98156.88;;;19.66;58.06
26083;BME280;13848;49.018;12.078;2023-07-09T05:34:15;98157.31;;;19.48;58.21
26083;BME280;13848;49.018;12.078;2023-07-09T05:36:45;98158.41;;;19.52;58.44
26083;BME280;13848;49.018;12.078;2023-07-09T05:39:26;98162.47;;;19.39;58.86
26083;BME280;13848;49.018;12.078;2023-07-09T05:41:52;98161.69;;;19.54;58.61
26083;BME280;13848;49.018;12.078;2023-07-09T05:44:26;98162.63;;;19.70;57.74
26083;BME280;13848;49.018;12.078;2023-07-09T05:47:05;98166.50;;;19.84;57.73
26083;BME280;13848;49.018;12.078;2023-07-09T05:49:49;98167.63;;;19.98;57.14
26083;BME280;13848;49.018;12.078;2023-07-09T05:52:30;98175.84;;;20.08;56.69
26083;BME280;13848;49.018;12.078;2023-07-09T05:54:56;98178.88;;;20.22;56.47
26083;BME280;13848;49.018;12.078;2023-07-09T05:57:50;98181.69;;;20.48;56.28
26083;BME280;13848;49.018;12.078;2023-07-09T06:00:49;98177.28;;;20.46;56.04
26083;BME280;13848;49.018;12.078;2023-07-09T06:03:15;98174.25;;;20.68;55.79
26083;BME280;13848;49.018;12.078;2023-07-09T06:05:58;98177.81;;;20.79;55.39
26083;BME280;13848;49.018;12.078;2023-07-09T06:08:26;98176.19;;;20.58;54.85
26083;BME280;13848;49.018;12.078;2023-07-09T06:11:05;98172.91;;;20.66;54.81
26083;BME280;13848;49.018;12.078;2023-07-09T06:13:34;98171.22;;;20.85;54.84
26083;BME280;13848;49.018;12.078;2023-07-09T06:16:03;98173.66;;;21.07;54.29
26083;BME280;13848;49.018;12.078;2023-07-09T06:18:38;98167.88;;;21.14;53.97
26083;BME280;13848;49.018;12.078;2023-07-09T06:21:14;98170.63;;;21.29;53.78
26083;BME280;13848;49.018;12.078;2023-07-09T06:23:56;98167.88;;;21.24;52.61
26083;BME280;13848;49.018;12.078;2023-07-09T06:26:43;98162.38;;;21.24;52.02
26083;BME280;13848;49.018;12.078;2023-07-09T06:29:31;98170.56;;;21.39;52.03
26083;BME280;13848;49.018;12.078;2023-07-09T06:32:05;98174.13;;;21.45;51.76
26083;BME280;13848;49.018;12.078;2023-07-09T06:34:45;98183.22;;;21.40;49.10
26083;BME280;13848;49.018;12.078;2023-07-09T06:37:21;98177.94;;;21.49;49.94
26083;BME280;13848;49.018;12.078;2023-07-09T06:40:09;98182.06;;;21.51;50.22
26083;BME280;13848;49.018;12.078;2023-07-09T06:42:51;98181.94;;;21.77;50.19
26083;BME280;13848;49.018;12.078;2023-07-09T06:45:24;98186.84;;;21.80;50.17
26083;BME280;13848;49.018;12.078;2023-07-09T06:48:01;98181.94;;;21.77;49.36
26083;BME280;13848;49.018;12.078;2023-07-09T06:53:50;98189.56;;;21.90;49.64
26083;BME280;13848;49.018;12.078;2023-07-09T06:56:18;98188.38;;;22.12;48.91
26083;BME280;13848;49.018;12.078;2023-07-09T06:58:58;98195.22;;;22.14;49.18
26083;BME280;13848;49.018;12.078;2023-07-09T07:01:35;98188.53;;;22.25;49.24
26083;BME280;13848;49.018;12.078;2023-07-09T07:04:01;98187.00;;;22.48;48.83
26083;BME280;13848;49.018;12.078;2023-07-09T07:07:10;98188.63;;;22.49;48.14
26083;BME280;13848;49.018;12.078;2023-07-09T07:09:53;98184.97;;;22.64;47.58
26083;BME280;13848;49.018;12.078;2023-07-09T07:12:26;98184.00;;;22.50;48.16
26083;BME280;13848;49.018;12.078;2023-07-09T07:14:59;98181.97;;;22.61;48.34
26083;BME280;13848;49.018;12.078;2023-07-09T07:17:27;98183.06;;;22.60;47.99
26083;BME280;13848;49.018;12.078;2023-07-09T07:20:50;98179.59;;;22.78;48.12
26083;BME280;13848;49.018;12.078;2023-07-09T07:23:03;98181.19;;;22.89;46.90
26083;BME280;13848;49.018;12.078;2023-07-09T07:25:38;98185.47;;;23.00;46.96
26083;BME280;13848;49.018;12.078;2023-07-09T07:28:09;98180.69;;;23.11;46.79
26083;BME280;13848;49.018;12.078;2023-07-09T07:31:15;98172.81;;;23.28;46.71
26083;BME280;13848;49.018;12.078;2023-07-09T07:33:51;98178.19;;;23.39;46.57
26083;BME280;13848;49.018;12.078;2023-07-09T07:36:23;98176.38;;;23.29;46.46
26083;BME280;13848;49.018;12.078;2023-07-09T07:38:59;98174.44;;;23.53;47.09
26083;BME280;13848;49.018;12.078;2023-07-09T07:41:25;98176.31;;;23.82;46.83
26083;BME280;13848;49.018;12.078;2023-07-09T07:43:59;98170.72;;;24.06;46.26
26083;BME280;13848;49.018;12.078;2023-07-09T07:46:32;98175.28;;;24.15;45.93
26083;BME280;13848;49.018;12.078;2023-07-09T07:49:00;98183.84;;;24.14;45.44
26083;BME280;13848;49.018;12.078;2023-07-09T07:51:45;98182.34;;;24.22;44.62
26083;BME280;13848;49.018;12.078;2023-07-09T07:54:27;98175.28;;;23.97;44.80
26083;BME280;13848;49.018;12.078;2023-07-09T07:57:09;98176.25;;;24.25;43.95
26083;BME280;13848;49.018;12.078;2023-07-09T07:59:53;98175.72;;;24.23;44.31
26083;BME280;13848;49.018;12.078;2023-07-09T08:02:28;98177.66;;;24.41;43.74
26083;BME280;13848;49.018;12.078;2023-07-09T08:05:06;98180.63;;;24.63;43.24
26083;BME280;13848;49.018;12.078;2023-07-09T08:07:52;98178.16;;;24.62;43.00
26083;BME280;13848;49.018;12.078;2023-07-09T08:10:24;98171.31;;;24.92;43.38
26083;BME280;13848;49.018;12.078;2023-07-09T08:12:50;98178.09;;;25.00;42.51
26083;BME280;13848;49.018;12.078;2023-07-09T08:18:07;98167.19;;;25.08;42.32
26083;BME280;13848;49.018;12.078;2023-07-09T08:20:42;98168.31;;;25.21;42.48
26083;BME280;13848;49.018;12.078;2023-07-09T08:23:08;98164.84;;;25.43;41.59
26083;BME280;13848;49.018;12.078;2023-07-09T08:25:38;98167.50;;;25.48;40.67
26083;BME280;13848;49.018;12.078;2023-07-09T08:28:08;98165.06;;;25.46;40.98
26083;BME280;13848;49.018;12.078;2023-07-09T08:30:37;98167.63;;;25.43;40.54
26083;BME280;13848;49.018;12.078;2023-07-09T08:33:03;98153.94;;;25.52;40.45
26083;BME280;13848;49.018;12.078;2023-07-09T08:35:35;98155.03;;;25.78;40.62
26083;BME280;13848;49.018;12.078;2023-07-09T08:38:04;98155.84;;;25.79;39.32
26083;BME280;13848;49.018;12.078;2023-07-09T08:40:35;98152.91;;;26.11;39.96
26083;BME280;13848;49.018;12.078;2023-07-09T08:43:14;98151.81;;;26.35;39.21
26083;BME280;13848;49.018;12.078;2023-07-09T08:45:48;98148.03;;;26.31;38.47
26083;BME280;13848;49.018;12.078;2023-07-09T08:48:26;98147.31;;;26.39;39.72
26083;BME280;13848;49.018;12.078;2023-07-09T08:51:00;98158.16;;;26.35;36.91
26083;BME280;13848;49.018;12.078;2023-07-09T08:53:34;98156.31;;;26.44;36.88
26083;BME280;13848;49.018;12.078;2023-07-09T08:56:08;98165.34;;;26.59;37.12
26083;BME280;13848;49.018;12.078;2023-07-09T08:58:39;98156.28;;;26.89;37.90
26083;BME280;13848;49.018;12.078;2023-07-09T09:01:17;98152.56;;;26.94;36.27
26083;BME280;13848;49.018;12.078;2023-07-09T09:03:52;98151.94;;;26.97;36.94
26083;BME280;13848;49.018;12.078;2023-07-09T09:06:26;98146.41;;;27.28;37.06
26083;BME280;13848;49.018;12.078;2023-07-09T09:09:02;98153.53;;;27.20;36.21
26083;BME280;13848;49.018;12.078;2023-07-09T09:11:41;98152.06;;;27.63;36.93
26083;BME280;13848;49.018;12.078;2023-07-09T09:14:27;98148.56;;;27.48;35.54
26083;BME280;13848;49.018;12.078;2023-07-09T09:17:11;98146.19;;;27.64;35.90
26083;BME280;13848;49.018;12.078;2023-07-09T09:19:50;98148.84;;;27.69;34.69
26083;BME280;13848;49.018;12.078;2023-07-09T09:22:23;98152.72;;;27.68;35.00
26083;BME280;13848;49.018;12.078;2023-07-09T09:24:56;98153.28;;;27.88;34.72
26083;BME280;13848;49.018;12.078;2023-07-09T09:27:24;98152.66;;;27.91;34.56
26083;BME280;13848;49.018;12.078;2023-07-09T09:29:51;98148.09;;;28.29;35.17
26083;BME280;13848;49.018;12.078;2023-07-09T09:32:22;98151.53;;;28.26;33.24
26083;BME280;13848;49.018;12.078;2023-07-09T09:34:50;98137.34;;;28.45;33.89
26083;BME280;13848;49.018;12.078;2023-07-09T09:37:25;98140.59;;;28.56;31.91
26083;BME280;13848;49.018;12.078;2023-07-09T09:39:51;98139.31;;;28.45;32.19
26083;BME280;13848;49.018;12.078;2023-07-09T09:42:17;98142.88;;;28.62;33.55
26083;BME280;13848;49.018;12.078;2023-07-09T09:44:44;98137.97;;;28.68;32.32
26083;BME280;13848;49.018;12.078;2023-07-09T09:47:12;98142.19;;;28.74;31.44
26083;BME280;13848;49.018;12.078;2023-07-09T09:49:39;98142.69;;;28.94;33.10
26083;BME280;13848;49.018;12.078;2023-07-09T09:52:11;98138.81;;;29.24;32.89
26083;BME280;13848;49.018;12.078;2023-07-09T09:54:40;98146.81;;;29.26;30.47
26083;BME280;13848;49.018;12.078;2023-07-09T09:57:15;98145.00;;;29.30;32.44
26083;BME280;13848;49.018;12.078;2023-07-09T09:59:42;98151.84;;;29.32;31.12
26083;BME280;13848;49.018;12.078;2023-07-09T10:02:16;98146.22;;;29.11;29.60
26083;BME280;13848;49.018;12.078;2023-07-09T10:04:43;98142.34;;;29.42;31.19
26083;BME280;13848;49.018;12.078;2023-07-09T10:07:17;98140.25;;;29.68;30.56
26083;BME280;13848;49.018;12.078;2023-07-09T10:09:47;98125.34;;;29.73;30.93
26083;BME280;13848;49.018;12.078;2023-07-09T10:12:23;98140.47;;;29.63;29.04
26083;BME280;13848;49.018;12.078;2023-07-09T10:14:58;98131.69;;;29.53;29.18
26083;BME280;13848;49.018;12.078;2023-07-09T10:17:35;98135.78;;;29.47;29.74
26083;BME280;13848;49.018;12.078;2023-07-09T10:20:06;98135.69;;;29.34;29.05
26083;BME280;13848;49.018;12.078;2023-07-09T10:22:40;98131.38;;;29.46;30.21
26083;BME280;13848;49.018;12.078;2023-07-09T10:25:16;98132.22;;;29.76;29.77
26083;BME280;13848;49.018;12.078;2023-07-09T10:27:56;98128.69;;;29.87;28.86
26083;BME280;13848;49.018;12.078;2023-07-09T10:30:39;98125.25;;;29.61;28.67
26083;BME280;13848;49.018;12.078;2023-07-09T10:33:09;98123.88;;;29.97;29.58
26083;BME280;13848;49.018;12.078;2023-07-09T10:35:38;98113.47;;;30.14;28.55
26083;BME280;13848;49.018;12.078;2023-07-09T10:38:20;98110.94;;;30.42;28.81
26083;BME280;13848;49.018;12.078;2023-07-09T10:40:51;98113.00;;;30.33;27.08
26083;BME280;13848;49.018;12.078;2023-07-09T10:43:21;98112.25;;;30.24;25.11
26083;BME280;13848;49.018;12.078;2023-07-09T10:45:53;98106.13;;;30.10;25.66
26083;BME280;13848;49.018;12.078;2023-07-09T10:48:31;98104.81;;;30.07;27.19
26083;BME280;13848;49.018;12.078;2023-07-09T10:50:59;98107.56;;;30.16;27.59
26083;BME280;13848;49.018;12.078;2023-07-09T10:53:30;98110.47;;;30.40;26.51
26083;BME280;13848;49.018;12.078;2023-07-09T10:56:00;98106.78;;;30.48;26.55
26083;BME280;13848;49.018;12.078;2023-07-09T10:58:34;98102.81;;;30.50;25.78
26083;BME280;13848;49.018;12.078;2023-07-09T11:01:01;98099.63;;;30.60;26.44
26083;BME280;13848;49.018;12.078;2023-07-09T11:03:36;98103.00;;;30.32;24.34
26083;BME280;13848;49.018;12.078;2023-07-09T11:06:03;98098.59;;;30.31;25.40
26083;BME280;13848;49.018;12.078;2023-07-09T11:08:35;98105.34;;;30.42;25.51
26083;BME280;13848;49.018;12.078;2023-07-09T11:11:04;98104.47;;;30.51;25.72
26083;BME280;13848;49.018;12.078;2023-07-09T11:13:37;98097.59;;;30.69;25.59
26083;BME280;13848;49.018;12.078;2023-07-09T11:16:05;98098.34;;;30.24;25.33
26083;BME280;13848;49.018;12.078;2023-07-09T11:18:34;98098.41;;;30.48;26.31
26083;BME280;13848;49.018;12.078;2023-07-09T11:21:04;98097.28;;;30.83;24.21
26083;BME280;13848;49.018;12.078;2023-07-09T11:23:38;98097.41;;;30.86;24.27
26083;BME280;13848;49.018;12.078;2023-07-09T11:26:12;98094.66;;;30.98;25.19
26083;BME280;13848;49.018;12.078;2023-07-09T11:28:39;98090.69;;;30.99;22.93
26083;BME280;13848;49.018;12.078;2023-07-09T11:31:08;98083.13;;;30.88;24.40
26083;BME280;13848;49.018;12.078;2023-07-09T11:33:45;98093.25;;;30.59;24.33
26083;BME280;13848;49.018;12.078;2023-07-09T11:36:13;98096.16;;;30.63;24.62
26083;BME280;13848;49.018;12.078;2023-07-09T11:38:44;98091.63;;;30.91;23.02
26083;BME280;13848;49.018;12.078;2023-07-09T11:41:28;98088.09;;;30.70;23.62
26083;BME280;13848;49.018;12.078;2023-07-09T11:44:12;98089.03;;;30.74;24.11
26083;BME280;13848;49.018;12.078;2023-07-09T11:46:58;98083.94;;;30.76;24.47
26083;BME280;13848;49.018;12.078;2023-07-09T11:49:32;98083.38;;;31.07;24.51
26083;BME280;13848;49.018;12.078;2023-07-09T11:52:02;98080.28;;;31.21;24.12
26083;BME280;13848;49.018;12.078;2023-07-09T11:54:34;98074.59;;;31.30;24.31
26083;BME280;13848;49.018;12.078;2023-07-09T11:57:00;98080.06;;;31.14;24.56
26083;BME280;13848;49.018;12.078;2023-07-09T11:59:26;98076.09;;;31.15;24.40
26083;BME280;13848;49.018;12.078;2023-07-09T12:01:52;98066.94;;;31.14;24.67
26083;BME280;13848;49.018;12.078;2023-07-09T12:04:20;98058.94;;;31.25;23.77
26083;BME280;13848;49.018;12.078;2023-07-09T12:06:52;98060.22;;;31.40;24.32
26083;BME280;13848;49.018;12.078;2023-07-09T12:09:20;98057.28;;;31.48;24.14
26083;BME280;13848;49.018;12.078;2023-07-09T12:11:48;98052.66;;;31.52;24.26
26083;BME280;13848;49.018;12.078;2023-07-09T12:14:16;98061.81;;;30.26;24.77
26083;BME280;13848;49.018;12.078;2023-07-09T12:16:44;98056.41;;;29.87;25.28
26083;BME280;13848;49.018;12.078;2023-07-09T12:19:11;98050.50;;;30.43;25.15
26083;BME280;13848;49.018;12.078;2023-07-09T12:21:39;98050.06;;;30.74;25.00
26083;BME280;13848;49.018;12.078;2023-07-09T12:24:18;98051.59;;;30.51;25.26
26083;BME280;13848;49.018;12.078;2023-07-09T12:26:47;98046.72;;;30.47;24.72
26083;BME280;13848;49.018;12.078;2023-07-09T12:29:14;98048.69;;;30.80;24.97
26083;BME280;13848;49.018;12.078;2023-07-09T12:31:40;98050.28;;;30.81;24.65
26083;BME280;13848;49.018;12.078;2023-07-09T12:34:11;98035.06;;;30.21;24.78
26083;BME280;13848;49.018;12.078;2023-07-09T12:36:38;98039.88;;;29.70;26.06
26083;BME280;13848;49.018;12.078;2023-07-09T12:39:10;98024.00;;;30.45;25.36
26083;BME280;13848;49.018;12.078;2023-07-09T12:41:39;98019.44;;;30.86;25.21
26083;BME280;13848;49.018;12.078;2023-07-09T12:44:05;98022.72;;;31.37;25.31
26083;BME280;13848;49.018;12.078;2023-07-09T12:46:38;98018.41;;;31.03;24.48
26083;BME280;13848;49.018;12.078;2023-07-09T12:49:05;98016.22;;;31.33;24.23
26083;BME280;13848;49.018;12.078;2023-07-09T12:51:31;98011.31;;;31.18;23.84
26083;BME280;13848;49.018;12.078;2023-07-09T12:54:01;98014.81;;;31.03;23.80
26083;BME280;13848;49.018;12.078;2023-07-09T12:56:28;98013.41;;;31.45;23.13
26083;BME280;13848;49.018;12.078;2023-07-09T12:58:57;98018.84;;;31.42;23.26
26083;BME280;13848;49.018;12.078;2023-07-09T13:01:23;98019.44;;;31.47;23.52
26083;BME280;13848;49.018;12.078;2023-07-09T13:03:54;98004.31;;;31.48;22.92
26083;BME280;13848;49.018;12.078;2023-07-09T13:06:26;97997.09;;;31.60;22.47
26083;BME280;13848;49.018;12.078;2023-07-09T13:08:56;97990.63;;;31.56;22.38
26083;BME280;13848;49.018;12.078;2023-07-09T13:11:22;97997.50;;;31.46;22.26
26083;BME280;13848;49.018;12.078;2023-07-09T13:13:56;97999.38;;;31.30;22.54
26083;BME280;13848;49.018;12.078;2023-07-09T13:16:23;97982.38;;;31.47;22.75
26083;BME280;13848;49.018;12.078;2023-07-09T13:18:49;97997.34;;;30.57;23.49
26083;BME280;13848;49.018;12.078;2023-07-09T13:21:16;97986.38;;;30.06;24.01
26083;BME280;13848;49.018;12.078;2023-07-09T13:23:43;97986.34;;;29.73;23.98
26083;BME280;13848;49.018;12.078;2023-07-09T13:26:09;97995.50;;;29.94;23.98